createdAt,value
2022-10-13T00:00:50.285Z,19.87
2022-10-13T00:03:18.914Z,16.70
2022-10-13T00:05:50.342Z,17.47
2022-10-13T00:08:20.585Z,17.80
2022-10-13T00:10:49.771Z,16.37
2022-10-13T00:13:22.308Z,16.87
2022-10-13T00:15:50.237Z,15.80
2022-10-13T00:18:18.386Z,16.90
2022-10-13T00:20:49.487Z,16.00
2022-10-13T00:23:18.496Z,16.13
2022-10-13T00:25:48.957Z,15.37
2022-10-13T00:28:18.319Z,15.83
2022-10-13T00:30:47.336Z,15.87
2022-10-13T00:33:15.405Z,17.33
2022-10-13T00:35:44.306Z,16.50
2022-10-13T00:38:13.993Z,17.40
2022-10-13T00:40:46.565Z,15.33
2022-10-13T00:43:21.928Z,17.20
2022-10-13T00:45:50.949Z,16.50
2022-10-13T00:48:21.927Z,16.93
2022-10-13T00:50:50.265Z,17.00
2022-10-13T00:53:22.759Z,16.50
2022-10-13T00:55:52.292Z,17.63
2022-10-13T00:58:23.020Z,17.20
2022-10-13T01:00:53.088Z,18.17
2022-10-13T01:03:22.402Z,19.07
2022-10-13T01:05:52.563Z,17.10
2022-10-13T01:08:22.837Z,17.17
2022-10-13T01:11:00.011Z,16.73
2022-10-13T01:13:35.540Z,17.63
2022-10-13T01:16:14.238Z,19.73
2022-10-13T01:18:49.737Z,18.33
2022-10-13T01:21:26.905Z,16.83
2022-10-13T01:24:18.676Z,16.77
2022-10-13T01:27:28.280Z,17.97
2022-10-13T01:30:19.140Z,16.47
2022-10-13T01:32:59.168Z,16.30
2022-10-13T01:35:42.265Z,15.67
2022-10-13T01:38:22.088Z,15.50
2022-10-13T01:41:00.619Z,16.37
2022-10-13T01:43:32.222Z,18.37
2022-10-13T01:46:07.406Z,17.17
2022-10-13T01:48:39.133Z,16.53
2022-10-13T01:51:10.611Z,17.23
2022-10-13T01:53:39.743Z,17.10
2022-10-13T01:56:08.259Z,15.70
2022-10-13T01:58:38.106Z,15.13
2022-10-13T02:01:22.503Z,14.10
2022-10-13T02:04:06.195Z,17.97
2022-10-13T02:06:42.731Z,17.10
2022-10-13T02:09:15.644Z,18.67
2022-10-13T02:11:51.251Z,17.97
2022-10-13T02:14:24.101Z,25.40
2022-10-13T02:16:55.693Z,18.63
2022-10-13T02:19:24.205Z,16.83
2022-10-13T02:21:53.735Z,18.70
2022-10-13T02:24:21.855Z,20.47
2022-10-13T02:26:50.142Z,20.00
2022-10-13T02:29:19.202Z,21.03
2022-10-13T02:31:47.820Z,29.30
2022-10-13T02:34:17.660Z,27.97
2022-10-13T02:36:45.497Z,28.30
2022-10-13T02:39:13.470Z,33.20
2022-10-13T02:41:41.353Z,36.37
2022-10-13T02:44:09.206Z,43.47
2022-10-13T02:46:37.110Z,48.07
2022-10-13T02:49:05.042Z,59.30
2022-10-13T02:51:39.680Z,43.37
2022-10-13T02:54:08.250Z,42.87
2022-10-13T02:56:36.158Z,55.03
2022-10-13T02:59:04.224Z,49.37
2022-10-13T03:01:32.961Z,43.63
2022-10-13T03:04:00.929Z,42.37
2022-10-13T03:06:28.806Z,46.53
2022-10-13T03:08:58.098Z,47.10
2022-10-13T03:11:26.216Z,49.33
2022-10-13T03:13:54.315Z,131.97
2022-10-13T03:16:22.224Z,57.57
2022-10-13T03:18:50.133Z,49.20
2022-10-13T03:21:18.142Z,53.60
2022-10-13T03:23:46.070Z,57.90
2022-10-13T03:26:15.604Z,52.30
2022-10-13T03:28:43.717Z,64.10
2022-10-13T03:31:13.800Z,85.10
2022-10-13T03:33:42.153Z,56.87
2022-10-13T03:36:11.516Z,49.57
2022-10-13T03:38:39.434Z,90.13
2022-10-13T03:41:08.134Z,64.13
2022-10-13T03:43:37.424Z,46.27
2022-10-13T03:46:07.308Z,98.17
2022-10-13T03:48:36.419Z,53.73
2022-10-13T03:51:06.801Z,52.40
2022-10-13T03:53:35.208Z,75.57
2022-10-13T03:56:03.588Z,37.87
2022-10-13T03:58:31.624Z,37.23
2022-10-13T04:01:04.799Z,38.47
2022-10-13T04:03:33.726Z,62.03
2022-10-13T04:06:02.725Z,51.30
2022-10-13T04:08:30.820Z,55.07
2022-10-13T04:11:02.147Z,57.23
2022-10-13T04:13:30.428Z,75.50
2022-10-13T04:16:02.385Z,54.47
2022-10-13T04:18:31.912Z,38.50
2022-10-13T04:20:59.883Z,43.07
2022-10-13T04:23:28.036Z,48.47
2022-10-13T04:25:56.526Z,42.70
2022-10-13T04:28:25.234Z,39.37
2022-10-13T04:30:53.325Z,54.03
2022-10-13T04:33:21.609Z,46.83
2022-10-13T04:35:50.896Z,42.17
2022-10-13T04:38:18.816Z,37.47
2022-10-13T04:40:46.675Z,57.17
2022-10-13T04:43:15.863Z,39.67
2022-10-13T04:45:43.775Z,40.00
2022-10-13T04:48:11.770Z,35.97
2022-10-13T04:50:39.675Z,39.20
2022-10-13T04:53:08.915Z,36.97
2022-10-13T04:55:37.891Z,38.13
2022-10-13T04:58:05.809Z,41.97
2022-10-13T05:00:34.069Z,45.30
2022-10-13T05:03:01.983Z,75.97
2022-10-13T05:05:29.908Z,37.07
2022-10-13T05:07:57.793Z,45.60
2022-10-13T05:10:29.231Z,42.37
2022-10-13T05:13:00.463Z,40.67
2022-10-13T05:15:29.260Z,41.03
2022-10-13T05:17:57.157Z,42.03
2022-10-13T05:20:25.057Z,40.57
2022-10-13T05:22:52.913Z,40.77
2022-10-13T05:25:20.978Z,43.03
2022-10-13T05:27:50.217Z,44.87
2022-10-13T05:30:18.231Z,42.50
2022-10-13T05:32:48.308Z,42.37
2022-10-13T05:35:19.460Z,40.30
2022-10-13T05:37:47.291Z,42.37
2022-10-13T05:40:15.492Z,40.07
2022-10-13T05:42:43.485Z,42.03
2022-10-13T05:45:13.533Z,41.77
2022-10-13T05:47:41.561Z,42.30
2022-10-13T05:50:09.800Z,39.87
2022-10-13T05:52:38.641Z,36.33
2022-10-13T05:55:10.920Z,37.47
2022-10-13T05:57:41.148Z,41.20
2022-10-13T06:00:11.028Z,40.40
2022-10-13T06:02:43.544Z,38.40
2022-10-13T06:05:15.783Z,36.53
2022-10-13T06:07:44.839Z,37.97
2022-10-13T06:10:13.265Z,39.67
2022-10-13T06:12:41.387Z,40.97
2022-10-13T06:18:08.081Z,35.47
2022-10-13T06:20:36.212Z,31.40
2022-10-13T06:23:04.165Z,32.53
2022-10-13T06:25:32.209Z,32.17
2022-10-13T06:28:00.538Z,33.10
2022-10-13T06:30:28.775Z,32.67
2022-10-13T06:32:57.089Z,34.17
2022-10-13T06:35:27.352Z,30.00
2022-10-13T06:37:55.222Z,29.00
2022-10-13T06:40:23.111Z,28.90
2022-10-13T06:42:51.664Z,27.93
2022-10-13T06:45:20.374Z,27.57
2022-10-13T06:47:48.358Z,26.63
2022-10-13T06:50:16.508Z,27.33
2022-10-13T06:52:46.994Z,26.93
2022-10-13T06:55:15.601Z,27.23
2022-10-13T06:57:44.069Z,25.33
2022-10-13T07:00:12.780Z,26.60
2022-10-13T07:02:40.649Z,27.67
2022-10-13T07:05:09.250Z,27.07
2022-10-13T07:07:37.161Z,26.33
2022-10-13T07:10:07.358Z,27.27
2022-10-13T07:12:35.247Z,26.23
2022-10-13T07:15:03.130Z,26.43
2022-10-13T07:17:31.349Z,28.40
2022-10-13T07:20:01.296Z,26.30
2022-10-13T07:22:33.063Z,26.30
2022-10-13T07:25:00.984Z,26.50
2022-10-13T07:27:30.250Z,27.07
2022-10-13T07:29:58.354Z,27.00
2022-10-13T07:32:26.318Z,25.93
2022-10-13T07:34:55.295Z,26.47
2022-10-13T07:37:23.594Z,26.47
2022-10-13T07:39:51.752Z,27.97
2022-10-13T07:42:19.713Z,27.27
2022-10-13T07:44:49.035Z,27.57
2022-10-13T07:47:17.117Z,26.57
2022-10-13T07:49:45.456Z,25.47
2022-10-13T07:52:13.432Z,26.00
2022-10-13T07:54:42.486Z,26.53
2022-10-13T07:57:10.443Z,26.20
2022-10-13T07:59:38.427Z,27.13
2022-10-13T08:02:07.961Z,25.73
2022-10-13T08:04:36.498Z,25.73
2022-10-13T08:07:05.879Z,25.73
2022-10-13T08:09:34.312Z,26.30
2022-10-13T08:12:02.299Z,27.80
2022-10-13T08:14:31.692Z,27.03
2022-10-13T08:16:59.706Z,28.87
2022-10-13T08:19:28.989Z,26.13
2022-10-13T08:21:58.781Z,25.93
2022-10-13T08:24:28.375Z,25.33
2022-10-13T08:26:56.637Z,26.70
2022-10-13T08:29:24.909Z,25.47
2022-10-13T08:31:53.843Z,27.80
2022-10-13T08:34:22.865Z,25.40
2022-10-13T08:36:53.733Z,26.93
2022-10-13T08:39:22.455Z,26.03
2022-10-13T08:41:51.303Z,26.70
2022-10-13T08:45:05.892Z,24.73
2022-10-13T08:47:21.333Z,26.23
2022-10-13T08:49:49.681Z,25.60
2022-10-13T08:52:23.415Z,24.40
2022-10-13T08:54:52.133Z,25.17
2022-10-13T08:57:20.589Z,25.00
2022-10-13T08:59:49.033Z,25.47
2022-10-13T09:02:25.496Z,24.67
2022-10-13T09:04:55.058Z,25.43
2022-10-13T09:07:28.800Z,28.60
2022-10-13T09:09:57.402Z,27.10
2022-10-13T09:12:26.190Z,28.03
2022-10-13T09:15:03.338Z,26.27
2022-10-13T09:17:32.414Z,26.10
2022-10-13T09:20:02.549Z,25.27
2022-10-13T09:22:33.965Z,26.37
2022-10-13T09:25:21.045Z,26.37
2022-10-13T09:27:51.469Z,26.77
2022-10-13T09:30:29.423Z,26.60
2022-10-13T09:33:15.291Z,24.73
2022-10-13T09:35:45.619Z,25.80
2022-10-13T09:38:17.805Z,26.00
2022-10-13T09:40:56.928Z,25.63
2022-10-13T09:43:31.107Z,25.87
2022-10-13T09:46:00.687Z,25.57
2022-10-13T09:48:31.160Z,25.93
2022-10-13T09:50:59.276Z,25.90
2022-10-13T09:53:32.546Z,25.23
2022-10-13T09:56:23.660Z,25.83
2022-10-13T09:58:59.416Z,25.63
2022-10-13T10:01:32.156Z,25.13
2022-10-13T10:04:12.754Z,24.93
2022-10-13T10:06:42.482Z,24.10
2022-10-13T10:09:34.609Z,23.93
2022-10-13T10:12:04.506Z,23.33
2022-10-13T10:14:34.290Z,23.13
2022-10-13T10:17:08.869Z,24.67
2022-10-13T10:19:48.912Z,24.20
2022-10-13T10:22:27.023Z,23.13
2022-10-13T10:25:04.817Z,23.70
2022-10-13T10:27:42.928Z,23.87
2022-10-13T10:30:16.941Z,24.33
2022-10-13T10:32:53.390Z,24.47
2022-10-13T10:35:33.080Z,22.23
2022-10-13T10:38:19.398Z,22.73
2022-10-13T10:40:52.708Z,23.43
2022-10-13T10:43:43.184Z,22.27
2022-10-13T10:46:18.545Z,22.00
2022-10-13T10:48:50.292Z,23.03
2022-10-13T10:51:18.838Z,22.13
2022-10-13T10:53:59.282Z,22.27
2022-10-13T10:56:35.150Z,24.60
2022-10-13T10:59:17.548Z,22.67
2022-10-13T11:01:52.983Z,23.13
2022-10-13T11:04:36.836Z,24.13
2022-10-13T11:07:05.332Z,23.93
2022-10-13T11:10:16.617Z,23.80
2022-10-13T11:13:13.232Z,23.90
2022-10-13T11:15:46.970Z,24.67
2022-10-13T11:18:56.773Z,24.23
2022-10-13T11:21:24.697Z,23.70
2022-10-13T11:23:52.594Z,23.57
2022-10-13T11:26:43.037Z,24.17
2022-10-13T11:29:56.794Z,23.43
2022-10-13T11:32:55.093Z,24.70
2022-10-13T11:35:26.376Z,25.07
2022-10-13T11:38:11.531Z,25.23
2022-10-13T11:40:58.560Z,24.33
2022-10-13T11:43:36.089Z,24.37
2022-10-13T11:46:21.401Z,24.80
2022-10-13T11:49:23.257Z,25.13
2022-10-13T11:52:07.969Z,23.47
2022-10-13T11:54:40.581Z,24.97
2022-10-13T11:57:20.041Z,24.93
2022-10-13T11:59:49.926Z,25.10
2022-10-13T12:02:21.021Z,23.60
2022-10-13T12:05:02.521Z,25.87
2022-10-13T12:07:34.772Z,24.47
2022-10-13T12:10:06.847Z,23.47
2022-10-13T12:12:35.245Z,23.93
2022-10-13T12:15:06.742Z,22.27
2022-10-13T12:17:38.943Z,21.53
2022-10-13T12:20:22.476Z,22.97
2022-10-13T12:22:50.679Z,22.90
2022-10-13T12:25:24.953Z,22.40
2022-10-13T12:27:55.172Z,23.30
2022-10-13T12:30:24.892Z,21.87
2022-10-13T12:32:56.256Z,21.20
2022-10-13T12:35:26.380Z,21.03
2022-10-13T12:37:55.962Z,21.60
2022-10-13T12:40:24.788Z,21.10
2022-10-13T12:42:52.896Z,21.37
2022-10-13T12:45:22.853Z,20.50
2022-10-13T12:47:53.585Z,20.80
2022-10-13T12:50:38.953Z,24.07
2022-10-13T12:53:13.996Z,20.70
2022-10-13T12:55:58.900Z,21.27
2022-10-13T12:58:30.113Z,20.87
2022-10-13T13:01:26.249Z,19.70
2022-10-13T13:03:57.793Z,20.33
2022-10-13T13:06:33.582Z,20.70
2022-10-13T13:09:10.040Z,23.17
2022-10-13T13:11:39.728Z,20.77
2022-10-13T13:14:24.396Z,21.67
2022-10-13T13:17:12.209Z,20.83
2022-10-13T13:19:41.667Z,19.37
2022-10-13T13:22:11.914Z,22.43
2022-10-13T13:24:40.677Z,19.63
2022-10-13T13:27:17.625Z,19.10
2022-10-13T13:29:45.871Z,22.67
2022-10-13T13:32:15.368Z,20.73
2022-10-13T13:34:43.688Z,19.13
2022-10-13T13:37:18.351Z,18.97
2022-10-13T13:39:46.555Z,18.80
2022-10-13T13:42:15.859Z,20.10
2022-10-13T13:44:43.742Z,19.93
2022-10-13T13:47:22.858Z,20.83
2022-10-13T13:49:52.082Z,20.17
2022-10-13T13:52:22.599Z,19.73
2022-10-13T13:54:51.723Z,20.73
2022-10-13T13:57:20.958Z,19.93
2022-10-13T13:59:49.142Z,18.60
2022-10-13T14:02:20.259Z,19.80
2022-10-13T14:04:48.474Z,21.13
2022-10-13T14:07:18.507Z,20.20
2022-10-13T14:09:48.502Z,21.10
2022-10-13T14:12:16.380Z,20.00
2022-10-13T14:14:44.379Z,20.33
2022-10-13T14:17:12.277Z,20.03
2022-10-13T14:19:40.233Z,20.43
2022-10-13T14:22:09.560Z,18.83
2022-10-13T14:24:37.609Z,20.07
2022-10-13T14:27:08.967Z,19.30
2022-10-13T14:29:37.117Z,20.77
2022-10-13T14:32:05.372Z,22.33
2022-10-13T14:34:33.638Z,19.83
2022-10-13T14:37:01.954Z,18.73
2022-10-13T14:39:29.926Z,18.60
2022-10-13T14:41:57.896Z,17.47
2022-10-13T14:44:27.176Z,18.00
2022-10-13T14:46:55.083Z,16.47
2022-10-13T14:49:22.989Z,14.77
2022-10-13T14:51:50.902Z,15.30
2022-10-13T14:54:18.953Z,16.13
2022-10-13T14:56:46.939Z,14.83
2022-10-13T14:59:14.854Z,15.90
2022-10-13T15:01:44.687Z,16.23
2022-10-13T15:04:12.723Z,15.73
2022-10-13T15:06:41.139Z,15.13
2022-10-13T15:09:10.361Z,13.83
2022-10-13T15:11:38.622Z,13.87
2022-10-13T15:14:07.506Z,14.40
2022-10-13T15:16:37.027Z,16.03
2022-10-13T15:19:06.596Z,13.57
2022-10-13T15:21:34.483Z,13.43
2022-10-13T15:24:02.609Z,13.50
2022-10-13T15:26:30.528Z,13.70
2022-10-13T15:28:58.830Z,14.00
2022-10-13T15:31:26.772Z,13.70
2022-10-13T15:33:55.239Z,14.07
2022-10-13T15:36:25.490Z,14.37
2022-10-13T15:38:53.592Z,13.77
2022-10-13T15:44:16.985Z,15.17
2022-10-13T15:47:05.781Z,14.37
2022-10-13T15:49:37.781Z,18.97
2022-10-13T15:52:07.119Z,17.50
2022-10-13T15:54:35.807Z,16.90
2022-10-13T15:57:03.777Z,18.07
2022-10-13T15:59:31.654Z,16.60
2022-10-13T16:01:59.631Z,18.13
2022-10-13T16:04:27.525Z,17.43
2022-10-13T16:06:55.387Z,15.60
2022-10-13T16:09:24.680Z,16.10
2022-10-13T16:11:54.382Z,16.87
2022-10-13T16:14:22.297Z,18.17
2022-10-13T16:16:50.775Z,14.87
2022-10-13T16:19:18.679Z,15.87
2022-10-13T16:21:46.992Z,16.50
2022-10-13T16:24:14.983Z,16.73
2022-10-13T16:26:44.284Z,15.10
2022-10-13T16:29:12.176Z,15.90
2022-10-13T16:31:40.379Z,15.20
2022-10-13T16:34:08.395Z,14.57
2022-10-13T16:36:36.275Z,14.67
2022-10-13T16:39:04.182Z,15.67
2022-10-13T16:41:32.082Z,17.03
2022-10-13T16:44:01.512Z,16.50
2022-10-13T16:46:30.019Z,14.43
2022-10-13T16:48:58.813Z,13.80
2022-10-13T16:51:27.539Z,14.03
2022-10-13T16:54:03.655Z,13.93
2022-10-13T16:56:32.844Z,12.87
2022-10-13T16:59:03.966Z,14.30
2022-10-13T17:01:33.286Z,15.20
2022-10-13T17:04:01.812Z,15.87
2022-10-13T17:06:30.441Z,15.17
2022-10-13T17:08:59.081Z,14.30
2022-10-13T17:11:28.461Z,15.40
2022-10-13T17:13:57.990Z,14.77
2022-10-13T17:19:19.664Z,14.73
2022-10-13T17:21:47.621Z,16.93
2022-10-13T17:24:17.453Z,15.37
2022-10-13T17:26:45.328Z,20.00
2022-10-13T17:29:13.282Z,22.83
2022-10-13T17:31:42.582Z,20.03
2022-10-13T17:34:10.439Z,19.53
2022-10-13T17:36:38.280Z,19.83
2022-10-13T17:39:08.338Z,20.80
2022-10-13T17:41:36.841Z,20.77
2022-10-13T17:44:05.452Z,22.37
2022-10-13T17:46:37.314Z,25.10
2022-10-13T17:49:07.930Z,23.27
2022-10-13T17:51:36.326Z,19.87
2022-10-13T17:54:04.685Z,20.47
2022-10-13T17:56:32.595Z,18.73
2022-10-13T17:59:01.903Z,19.43
2022-10-13T18:01:32.752Z,17.53
2022-10-13T18:04:03.508Z,18.40
2022-10-13T18:06:38.476Z,18.53
2022-10-13T18:09:08.909Z,17.03
2022-10-13T18:11:37.207Z,17.40
2022-10-13T18:14:05.340Z,17.13
2022-10-13T18:16:36.999Z,17.93
2022-10-13T18:19:05.842Z,15.50
2022-10-13T18:21:35.177Z,17.00
2022-10-13T18:24:03.807Z,17.20
2022-10-13T18:26:34.966Z,17.73
2022-10-13T18:29:03.916Z,17.37
2022-10-13T18:31:33.985Z,16.23
2022-10-13T18:34:03.985Z,16.00
2022-10-13T18:39:27.955Z,16.67
2022-10-13T18:41:57.323Z,16.57
2022-10-13T18:44:25.433Z,19.50
2022-10-13T18:46:56.498Z,17.20
2022-10-13T18:49:30.903Z,18.53
2022-10-13T18:52:01.171Z,16.87
2022-10-13T18:54:29.999Z,15.27
2022-10-13T18:56:57.928Z,15.37
2022-10-13T18:59:25.914Z,15.87
2022-10-13T19:01:53.806Z,17.03
2022-10-13T19:04:22.405Z,16.07
2022-10-13T19:06:50.308Z,16.73
2022-10-13T19:09:21.603Z,17.77
2022-10-13T19:11:49.561Z,18.07
2022-10-13T19:14:17.430Z,17.63
2022-10-13T19:16:45.428Z,17.73
2022-10-13T19:19:14.116Z,18.23
2022-10-13T19:21:42.477Z,17.63
2022-10-13T19:24:13.656Z,17.13
2022-10-13T19:26:42.995Z,20.47
2022-10-13T19:29:12.992Z,18.47
2022-10-13T19:31:42.412Z,19.07
2022-10-13T19:34:11.071Z,18.93
2022-10-13T19:36:42.032Z,20.93
2022-10-13T19:39:14.969Z,21.47
2022-10-13T19:41:45.558Z,19.30
2022-10-13T19:44:13.809Z,18.43
2022-10-13T19:46:42.924Z,18.40
2022-10-13T19:49:11.702Z,18.53
2022-10-13T19:51:41.755Z,19.93
2022-10-13T19:54:09.921Z,18.63
2022-10-13T19:56:38.095Z,19.50
2022-10-13T19:59:07.450Z,23.53
2022-10-13T20:01:39.996Z,20.03
2022-10-13T20:04:08.241Z,20.10
2022-10-13T20:06:36.334Z,19.60
2022-10-13T20:09:05.020Z,21.90
2022-10-13T20:11:33.007Z,20.13
2022-10-13T20:14:00.895Z,19.97
2022-10-13T20:16:30.431Z,20.83
2022-10-13T20:18:59.766Z,20.77
2022-10-13T20:21:29.253Z,22.33
2022-10-13T20:23:58.429Z,21.23
2022-10-13T20:26:27.202Z,21.10
2022-10-13T20:28:55.763Z,20.13
2022-10-13T20:31:23.858Z,20.03
2022-10-13T20:33:56.731Z,20.77
2022-10-13T20:36:26.564Z,20.40
2022-10-13T20:38:55.865Z,20.00
2022-10-13T20:41:25.881Z,20.40
2022-10-13T20:43:55.789Z,20.43
2022-10-13T20:46:24.947Z,19.73
2022-10-13T20:51:44.047Z,18.70
2022-10-13T20:54:13.611Z,20.07
2022-10-13T20:56:42.204Z,19.50
2022-10-13T20:59:14.618Z,19.97
2022-10-13T21:01:42.568Z,18.73
2022-10-13T21:04:11.290Z,18.03
2022-10-13T21:06:39.767Z,17.77
2022-10-13T21:09:09.215Z,18.80
2022-10-13T21:11:37.952Z,19.40
2022-10-13T21:14:07.081Z,18.33
2022-10-13T21:16:35.684Z,17.17
2022-10-13T21:19:04.526Z,16.10
2022-10-13T21:21:34.126Z,16.27
2022-10-13T21:24:05.133Z,16.80
2022-10-13T21:26:35.029Z,17.13
2022-10-13T21:29:03.466Z,16.20
2022-10-13T21:31:31.622Z,16.13
2022-10-13T21:33:59.504Z,16.03
2022-10-13T21:36:29.412Z,15.57
2022-10-13T21:38:59.494Z,19.33
2022-10-13T21:41:29.235Z,18.57
2022-10-13T21:43:58.737Z,17.83
2022-10-13T21:46:28.320Z,18.27
2022-10-13T21:48:57.721Z,19.40
2022-10-13T21:51:29.234Z,17.33
2022-10-13T21:53:58.662Z,17.47
2022-10-13T21:56:28.096Z,17.17
2022-10-13T21:58:57.110Z,16.23
2022-10-13T22:01:27.118Z,15.77
2022-10-13T22:03:56.409Z,15.10
2022-10-13T22:06:24.749Z,15.37
2022-10-13T22:08:54.516Z,17.67
2022-10-13T22:11:23.436Z,15.40
2022-10-13T22:13:51.533Z,17.27
2022-10-13T22:16:21.807Z,17.00
2022-10-13T22:18:53.227Z,19.20
2022-10-13T22:21:23.386Z,18.50
2022-10-13T22:23:51.332Z,17.97
2022-10-13T22:26:19.865Z,19.27
2022-10-13T22:28:51.523Z,17.80
2022-10-13T22:31:20.449Z,19.17
2022-10-13T22:33:53.516Z,18.87
2022-10-13T22:36:23.354Z,19.93
2022-10-13T22:38:52.869Z,17.60
2022-10-13T22:41:21.759Z,19.70
2022-10-13T22:43:51.371Z,20.83
2022-10-13T22:46:22.828Z,20.40
2022-10-13T22:48:52.527Z,21.60
2022-10-13T22:51:22.526Z,20.27
2022-10-13T22:53:51.413Z,20.70
2022-10-13T22:56:23.103Z,23.23
2022-10-13T22:58:51.328Z,20.50
2022-10-13T23:01:20.298Z,20.00
2022-10-13T23:03:49.178Z,19.80
2022-10-13T23:06:21.510Z,21.03
2022-10-13T23:08:49.970Z,22.00
2022-10-13T23:11:18.487Z,21.30
2022-10-13T23:13:46.564Z,21.07
2022-10-13T23:16:16.675Z,21.30
2022-10-13T23:18:44.718Z,21.80
2022-10-13T23:21:14.983Z,22.47
2022-10-13T23:23:44.354Z,23.23
2022-10-13T23:26:13.899Z,22.03
2022-10-13T23:28:42.049Z,21.80
2022-10-13T23:31:13.073Z,21.20
2022-10-13T23:33:40.793Z,21.43
2022-10-13T23:36:09.752Z,20.87
2022-10-13T23:38:37.406Z,22.53
2022-10-13T23:41:08.319Z,22.23
2022-10-13T23:43:36.327Z,21.57
2022-10-13T23:46:04.617Z,22.37
2022-10-13T23:48:33.082Z,20.67
2022-10-13T23:51:06.582Z,20.70
2022-10-13T23:53:35.461Z,20.87
2022-10-13T23:56:03.755Z,21.37
2022-10-13T23:58:33.455Z,20.90
